sensor_id;sensor_type;location;lat;lon;timestamp;temperature;humidity
7002;DHT22;3541;53.230;10.518;2022-09-09T00:02:15;15.10;99.90
7002;DHT22;3541;53.230;10.518;2022-09-09T00:04:48;15.20;99.90
7002;DHT22;3541;53.230;10.518;2022-09-09T00:07:25;15.20;99.90
7002;DHT22;3541;53.230;10.518;2022-09-09T00:10:04;15.20;99.90
7002;DHT22;3541;53.230;10.518;2022-09-09T00:12:41;15.20;99.90
7002;DHT22;3541;53.230;10.518;2022-09-09T00:15:18;15.20;99.90
7002;DHT22;3541;53.230;10.518;2022-09-09T00:17:52;15.20;99.90
7002;DHT22;3541;53.230;10.518;2022-09-09T00:20:25;15.10;99.90
7002;DHT22;3541;53.230;10.518;2022-09-09T00:22:59;15.20;99.90
7002;DHT22;3541;53.230;10.518;2022-09-09T00:25:31;15.10;99.90
7002;DHT22;3541;53.230;10.518;2022-09-09T00:28:00;15.20;99.90
7002;DHT22;3541;53.230;10.518;2022-09-09T00:30:32;15.20;99.90
7002;DHT22;3541;53.230;10.518;2022-09-09T00:33:10;15.20;99.90
7002;DHT22;3541;53.230;10.518;2022-09-09T00:35:44;15.20;99.90
7002;DHT22;3541;53.230;10.518;2022-09-09T00:38:14;15.10;99.90
7002;DHT22;3541;53.230;10.518;2022-09-09T00:40:47;15.10;99.90
7002;DHT22;3541;53.230;10.518;2022-09-09T00:43:24;15.10;99.90
7002;DHT22;3541;53.230;10.518;2022-09-09T00:46:25;15.10;99.90
7002;DHT22;3541;53.230;10.518;2022-09-09T00:49:04;15.10;99.90
7002;DHT22;3541;53.230;10.518;2022-09-09T00:51:43;15.00;99.90
7002;DHT22;3541;53.230;10.518;2022-09-09T00:54:25;15.10;99.90
7002;DHT22;3541;53.230;10.518;2022-09-09T00:57:00;15.10;99.90
7002;DHT22;3541;53.230;10.518;2022-09-09T00:59:35;15.00;99.90
7002;DHT22;3541;53.230;10.518;2022-09-09T01:02:14;15.00;99.90
7002;DHT22;3541;53.230;10.518;2022-09-09T01:04:44;15.00;99.90
7002;DHT22;3541;53.230;10.518;2022-09-09T01:07:16;15.00;99.90
7002;DHT22;3541;53.230;10.518;2022-09-09T01:09:52;14.90;99.90
7002;DHT22;3541;53.230;10.518;2022-09-09T01:12:25;15.00;99.90
7002;DHT22;3541;53.230;10.518;2022-09-09T01:15:00;14.90;99.90
7002;DHT22;3541;53.230;10.518;2022-09-09T01:17:32;14.90;99.90
7002;DHT22;3541;53.230;10.518;2022-09-09T01:20:08;14.90;99.90
7002;DHT22;3541;53.230;10.518;2022-09-09T01:22:42;14.90;99.90
7002;DHT22;3541;53.230;10.518;2022-09-09T01:25:21;14.80;99.90
7002;DHT22;3541;53.230;10.518;2022-09-09T01:27:52;14.90;99.90
7002;DHT22;3541;53.230;10.518;2022-09-09T01:30:21;14.80;99.90
7002;DHT22;3541;53.230;10.518;2022-09-09T01:32:50;14.80;99.90
7002;DHT22;3541;53.230;10.518;2022-09-09T01:35:27;14.90;99.90
7002;DHT22;3541;53.230;10.518;2022-09-09T01:37:56;14.90;99.90
7002;DHT22;3541;53.230;10.518;2022-09-09T01:40:24;14.90;99.90
7002;DHT22;3541;53.230;10.518;2022-09-09T01:42:53;14.90;99.90
7002;DHT22;3541;53.230;10.518;2022-09-09T01:45:21;14.90;99.90
7002;DHT22;3541;53.230;10.518;2022-09-09T01:47:48;14.90;99.90
7002;DHT22;3541;53.230;10.518;2022-09-09T01:50:16;14.90;99.90
7002;DHT22;3541;53.230;10.518;2022-09-09T01:52:44;14.90;99.90
7002;DHT22;3541;53.230;10.518;2022-09-09T01:55:13;14.90;99.90
7002;DHT22;3541;53.230;10.518;2022-09-09T01:57:44;14.80;99.90
7002;DHT22;3541;53.230;10.518;2022-09-09T02:00:14;14.90;99.90
7002;DHT22;3541;53.230;10.518;2022-09-09T02:02:46;14.90;99.90
7002;DHT22;3541;53.230;10.518;2022-09-09T02:05:25;14.90;99.90
7002;DHT22;3541;53.230;10.518;2022-09-09T02:07:59;14.90;99.90
7002;DHT22;3541;53.230;10.518;2022-09-09T02:10:31;14.90;99.90
7002;DHT22;3541;53.230;10.518;2022-09-09T02:13:03;14.90;99.90
7002;DHT22;3541;53.230;10.518;2022-09-09T02:15:34;14.90;99.90
7002;DHT22;3541;53.230;10.518;2022-09-09T02:18:05;14.90;99.90
7002;DHT22;3541;53.230;10.518;2022-09-09T02:20:35;14.80;99.90
7002;DHT22;3541;53.230;10.518;2022-09-09T02:23:04;14.80;99.90
7002;DHT22;3541;53.230;10.518;2022-09-09T02:25:34;14.80;99.90
7002;DHT22;3541;53.230;10.518;2022-09-09T02:28:03;14.80;99.90
7002;DHT22;3541;53.230;10.518;2022-09-09T02:30:34;14.80;99.90
7002;DHT22;3541;53.230;10.518;2022-09-09T02:33:04;14.80;99.90
7002;DHT22;3541;53.230;10.518;2022-09-09T02:35:32;14.80;99.90
7002;DHT22;3541;53.230;10.518;2022-09-09T02:38:04;14.80;99.90
7002;DHT22;3541;53.230;10.518;2022-09-09T02:40:33;14.80;99.90
7002;DHT22;3541;53.230;10.518;2022-09-09T02:43:00;14.80;99.90
7002;DHT22;3541;53.230;10.518;2022-09-09T02:45:34;14.70;99.90
7002;DHT22;3541;53.230;10.518;2022-09-09T02:48:09;14.70;99.90
7002;DHT22;3541;53.230;10.518;2022-09-09T02:50:41;14.70;99.90
7002;DHT22;3541;53.230;10.518;2022-09-09T02:53:16;14.50;99.90
7002;DHT22;3541;53.230;10.518;2022-09-09T02:55:47;14.50;99.90
7002;DHT22;3541;53.230;10.518;2022-09-09T02:58:16;14.60;99.90
7002;DHT22;3541;53.230;10.518;2022-09-09T03:00:46;14.60;99.90
7002;DHT22;3541;53.230;10.518;2022-09-09T03:03:13;14.60;99.90
7002;DHT22;3541;53.230;10.518;2022-09-09T03:05:41;14.60;99.90
7002;DHT22;3541;53.230;10.518;2022-09-09T03:08:08;14.50;99.90
7002;DHT22;3541;53.230;10.518;2022-09-09T03:10:35;14.60;99.90
7002;DHT22;3541;53.230;10.518;2022-09-09T03:13:03;14.60;99.90
7002;DHT22;3541;53.230;10.518;2022-09-09T03:15:31;14.60;99.90
7002;DHT22;3541;53.230;10.518;2022-09-09T03:18:00;14.60;99.90
7002;DHT22;3541;53.230;10.518;2022-09-09T03:20:28;14.60;99.90
7002;DHT22;3541;53.230;10.518;2022-09-09T03:22:55;14.60;99.90
7002;DHT22;3541;53.230;10.518;2022-09-09T03:25:22;14.70;99.90
7002;DHT22;3541;53.230;10.518;2022-09-09T03:27:50;14.60;99.90
7002;DHT22;3541;53.230;10.518;2022-09-09T03:30:18;14.60;99.90
7002;DHT22;3541;53.230;10.518;2022-09-09T03:32:45;14.60;99.90
7002;DHT22;3541;53.230;10.518;2022-09-09T03:35:13;14.60;99.90
7002;DHT22;3541;53.230;10.518;2022-09-09T03:37:40;14.60;99.90
7002;DHT22;3541;53.230;10.518;2022-09-09T03:40:08;14.60;99.90
7002;DHT22;3541;53.230;10.518;2022-09-09T03:42:36;14.70;99.90
7002;DHT22;3541;53.230;10.518;2022-09-09T03:45:03;14.70;99.90
7002;DHT22;3541;53.230;10.518;2022-09-09T03:47:30;14.70;99.90
7002;DHT22;3541;53.230;10.518;2022-09-09T03:49:57;14.70;99.90
7002;DHT22;3541;53.230;10.518;2022-09-09T03:52:25;14.60;99.90
7002;DHT22;3541;53.230;10.518;2022-09-09T03:54:51;14.60;99.90
7002;DHT22;3541;53.230;10.518;2022-09-09T03:57:18;14.60;99.90
7002;DHT22;3541;53.230;10.518;2022-09-09T03:59:45;14.60;99.90
7002;DHT22;3541;53.230;10.518;2022-09-09T04:02:11;14.50;99.90
7002;DHT22;3541;53.230;10.518;2022-09-09T04:04:38;14.50;99.90
7002;DHT22;3541;53.230;10.518;2022-09-09T04:07:05;14.60;99.90
7002;DHT22;3541;53.230;10.518;2022-09-09T04:09:33;14.50;99.90
7002;DHT22;3541;53.230;10.518;2022-09-09T04:12:01;14.50;99.90
7002;DHT22;3541;53.230;10.518;2022-09-09T04:14:27;14.50;99.90
7002;DHT22;3541;53.230;10.518;2022-09-09T04:16:54;14.50;99.90
7002;DHT22;3541;53.230;10.518;2022-09-09T04:19:22;14.50;99.90
7002;DHT22;3541;53.230;10.518;2022-09-09T04:21:49;14.50;99.90
7002;DHT22;3541;53.230;10.518;2022-09-09T04:24:17;14.50;99.90
7002;DHT22;3541;53.230;10.518;2022-09-09T04:26:45;14.50;99.90
7002;DHT22;3541;53.230;10.518;2022-09-09T04:29:12;14.60;99.90
7002;DHT22;3541;53.230;10.518;2022-09-09T04:31:39;14.60;99.90
7002;DHT22;3541;53.230;10.518;2022-09-09T04:34:07;14.60;99.90
7002;DHT22;3541;53.230;10.518;2022-09-09T04:36:34;14.60;99.90
7002;DHT22;3541;53.230;10.518;2022-09-09T04:39:00;14.70;99.90
7002;DHT22;3541;53.230;10.518;2022-09-09T04:41:27;14.70;99.90
7002;DHT22;3541;53.230;10.518;2022-09-09T04:43:56;14.70;99.90
7002;DHT22;3541;53.230;10.518;2022-09-09T04:46:23;14.60;99.90
7002;DHT22;3541;53.230;10.518;2022-09-09T04:48:50;14.70;99.90
7002;DHT22;3541;53.230;10.518;2022-09-09T04:51:18;14.70;99.90
7002;DHT22;3541;53.230;10.518;2022-09-09T04:53:45;14.70;99.90
7002;DHT22;3541;53.230;10.518;2022-09-09T04:56:14;14.60;99.90
7002;DHT22;3541;53.230;10.518;2022-09-09T04:58:41;14.60;99.90
7002;DHT22;3541;53.230;10.518;2022-09-09T05:01:11;14.60;99.90
7002;DHT22;3541;53.230;10.518;2022-09-09T05:03:38;14.60;99.90
7002;DHT22;3541;53.230;10.518;2022-09-09T05:06:06;14.60;99.90
7002;DHT22;3541;53.230;10.518;2022-09-09T05:08:35;14.60;99.90
7002;DHT22;3541;53.230;10.518;2022-09-09T05:11:02;14.60;99.90
7002;DHT22;3541;53.230;10.518;2022-09-09T05:13:29;14.70;99.90
7002;DHT22;3541;53.230;10.518;2022-09-09T05:15:57;14.60;99.90
7002;DHT22;3541;53.230;10.518;2022-09-09T05:18:25;14.50;99.90
7002;DHT22;3541;53.230;10.518;2022-09-09T05:20:51;14.60;99.90
7002;DHT22;3541;53.230;10.518;2022-09-09T05:23:18;14.60;99.90
7002;DHT22;3541;53.230;10.518;2022-09-09T05:25:54;14.60;99.90
7002;DHT22;3541;53.230;10.518;2022-09-09T05:28:22;14.60;99.90
7002;DHT22;3541;53.230;10.518;2022-09-09T05:30:55;14.50;99.90
7002;DHT22;3541;53.230;10.518;2022-09-09T05:33:22;14.50;99.90
7002;DHT22;3541;53.230;10.518;2022-09-09T05:35:59;14.50;99.90
7002;DHT22;3541;53.230;10.518;2022-09-09T05:38:27;14.50;99.90
7002;DHT22;3541;53.230;10.518;2022-09-09T05:40:55;14.60;99.90
7002;DHT22;3541;53.230;10.518;2022-09-09T05:43:22;14.60;99.90
7002;DHT22;3541;53.230;10.518;2022-09-09T05:45:59;14.60;99.90
7002;DHT22;3541;53.230;10.518;2022-09-09T05:48:28;14.60;99.90
7002;DHT22;3541;53.230;10.518;2022-09-09T05:50:56;14.60;99.90
7002;DHT22;3541;53.230;10.518;2022-09-09T05:53:23;14.60;99.90
7002;DHT22;3541;53.230;10.518;2022-09-09T05:55:49;14.60;99.90
7002;DHT22;3541;53.230;10.518;2022-09-09T05:58:16;14.60;99.90
7002;DHT22;3541;53.230;10.518;2022-09-09T06:00:43;14.70;99.90
7002;DHT22;3541;53.230;10.518;2022-09-09T06:03:10;14.60;99.90
7002;DHT22;3541;53.230;10.518;2022-09-09T06:05:37;14.60;99.90
7002;DHT22;3541;53.230;10.518;2022-09-09T06:08:05;14.60;99.90
7002;DHT22;3541;53.230;10.518;2022-09-09T06:10:32;14.70;99.90
7002;DHT22;3541;53.230;10.518;2022-09-09T06:12:59;14.70;99.90
7002;DHT22;3541;53.230;10.518;2022-09-09T06:15:26;14.70;99.90
7002;DHT22;3541;53.230;10.518;2022-09-09T06:17:54;14.80;99.90
7002;DHT22;3541;53.230;10.518;2022-09-09T06:20:21;14.80;99.90
7002;DHT22;3541;53.230;10.518;2022-09-09T06:22:48;14.90;99.90
7002;DHT22;3541;53.230;10.518;2022-09-09T06:25:16;14.80;99.90
7002;DHT22;3541;53.230;10.518;2022-09-09T06:27:48;14.90;99.90
7002;DHT22;3541;53.230;10.518;2022-09-09T06:30:15;14.90;99.90
7002;DHT22;3541;53.230;10.518;2022-09-09T06:32:42;14.90;99.90
7002;DHT22;3541;53.230;10.518;2022-09-09T06:35:09;14.90;99.90
7002;DHT22;3541;53.230;10.518;2022-09-09T06:37:36;14.90;99.90
7002;DHT22;3541;53.230;10.518;2022-09-09T06:40:03;14.90;99.90
7002;DHT22;3541;53.230;10.518;2022-09-09T06:42:30;14.90;99.90
7002;DHT22;3541;53.230;10.518;2022-09-09T06:44:57;14.90;99.90
7002;DHT22;3541;53.230;10.518;2022-09-09T06:47:24;14.90;99.90
7002;DHT22;3541;53.230;10.518;2022-09-09T06:49:52;14.90;99.90
7002;DHT22;3541;53.230;10.518;2022-09-09T06:52:19;14.90;99.90
7002;DHT22;3541;53.230;10.518;2022-09-09T06:54:45;14.90;99.90
7002;DHT22;3541;53.230;10.518;2022-09-09T06:57:12;14.90;99.90
7002;DHT22;3541;53.230;10.518;2022-09-09T06:59:40;14.90;99.90
7002;DHT22;3541;53.230;10.518;2022-09-09T07:02:07;15.00;99.90
7002;DHT22;3541;53.230;10.518;2022-09-09T07:04:34;15.00;99.90
7002;DHT22;3541;53.230;10.518;2022-09-09T07:07:02;15.10;99.90
7002;DHT22;3541;53.230;10.518;2022-09-09T07:09:29;15.10;99.90
7002;DHT22;3541;53.230;10.518;2022-09-09T07:11:57;15.20;99.90
7002;DHT22;3541;53.230;10.518;2022-09-09T07:14:24;15.20;99.90
7002;DHT22;3541;53.230;10.518;2022-09-09T07:16:53;15.20;99.90
7002;DHT22;3541;53.230;10.518;2022-09-09T07:19:19;15.30;99.90
7002;DHT22;3541;53.230;10.518;2022-09-09T07:21:46;15.30;99.90
7002;DHT22;3541;53.230;10.518;2022-09-09T07:24:12;15.30;99.90
7002;DHT22;3541;53.230;10.518;2022-09-09T07:26:39;15.40;99.90
7002;DHT22;3541;53.230;10.518;2022-09-09T07:29:06;15.40;99.90
7002;DHT22;3541;53.230;10.518;2022-09-09T07:31:34;15.50;99.90
7002;DHT22;3541;53.230;10.518;2022-09-09T07:34:04;15.60;99.90
7002;DHT22;3541;53.230;10.518;2022-09-09T07:36:32;15.70;99.90
7002;DHT22;3541;53.230;10.518;2022-09-09T07:39:00;15.80;99.90
7002;DHT22;3541;53.230;10.518;2022-09-09T07:41:30;15.80;99.90
7002;DHT22;3541;53.230;10.518;2022-09-09T07:43:57;15.70;99.90
7002;DHT22;3541;53.230;10.518;2022-09-09T07:46:25;15.70;99.90
7002;DHT22;3541;53.230;10.518;2022-09-09T07:48:53;15.70;99.90
7002;DHT22;3541;53.230;10.518;2022-09-09T07:51:25;15.70;99.90
7002;DHT22;3541;53.230;10.518;2022-09-09T07:53:53;15.80;99.90
7002;DHT22;3541;53.230;10.518;2022-09-09T07:56:20;15.80;99.90
7002;DHT22;3541;53.230;10.518;2022-09-09T07:58:48;15.80;99.90
7002;DHT22;3541;53.230;10.518;2022-09-09T08:01:17;15.90;99.90
7002;DHT22;3541;53.230;10.518;2022-09-09T08:03:44;15.90;99.90
7002;DHT22;3541;53.230;10.518;2022-09-09T08:06:11;16.00;99.90
7002;DHT22;3541;53.230;10.518;2022-09-09T08:08:39;16.10;99.90
7002;DHT22;3541;53.230;10.518;2022-09-09T08:11:10;16.20;99.90
7002;DHT22;3541;53.230;10.518;2022-09-09T08:13:38;16.20;99.90
7002;DHT22;3541;53.230;10.518;2022-09-09T08:16:06;16.20;99.90
7002;DHT22;3541;53.230;10.518;2022-09-09T08:18:33;16.20;99.90
7002;DHT22;3541;53.230;10.518;2022-09-09T08:21:08;16.30;99.90
7002;DHT22;3541;53.230;10.518;2022-09-09T08:23:38;16.40;99.90
7002;DHT22;3541;53.230;10.518;2022-09-09T08:26:08;16.40;99.90
7002;DHT22;3541;53.230;10.518;2022-09-09T08:28:35;16.40;99.90
7002;DHT22;3541;53.230;10.518;2022-09-09T08:31:10;16.40;99.90
7002;DHT22;3541;53.230;10.518;2022-09-09T08:33:37;16.40;99.90
7002;DHT22;3541;53.230;10.518;2022-09-09T08:36:05;16.40;99.90
7002;DHT22;3541;53.230;10.518;2022-09-09T08:38:34;16.40;99.90
7002;DHT22;3541;53.230;10.518;2022-09-09T08:41:28;16.40;99.90
7002;DHT22;3541;53.230;10.518;2022-09-09T08:44:02;16.50;99.90
7002;DHT22;3541;53.230;10.518;2022-09-09T08:46:36;16.50;99.90
7002;DHT22;3541;53.230;10.518;2022-09-09T08:49:11;16.50;99.90
7002;DHT22;3541;53.230;10.518;2022-09-09T08:51:43;16.60;99.90
7002;DHT22;3541;53.230;10.518;2022-09-09T08:54:09;16.60;99.90
7002;DHT22;3541;53.230;10.518;2022-09-09T08:56:37;16.70;99.90
7002;DHT22;3541;53.230;10.518;2022-09-09T08:59:04;16.70;99.90
7002;DHT22;3541;53.230;10.518;2022-09-09T09:01:44;16.80;99.90
7002;DHT22;3541;53.230;10.518;2022-09-09T09:04:37;16.80;99.90
7002;DHT22;3541;53.230;10.518;2022-09-09T09:07:13;16.80;99.90
7002;DHT22;3541;53.230;10.518;2022-09-09T09:09:48;16.80;99.90
7002;DHT22;3541;53.230;10.518;2022-09-09T09:12:28;17.00;99.90
7002;DHT22;3541;53.230;10.518;2022-09-09T09:14:56;17.00;99.90
7002;DHT22;3541;53.230;10.518;2022-09-09T09:17:26;17.10;99.90
7002;DHT22;3541;53.230;10.518;2022-09-09T09:19:55;17.10;99.90
7002;DHT22;3541;53.230;10.518;2022-09-09T09:22:23;17.20;99.90
7002;DHT22;3541;53.230;10.518;2022-09-09T09:25:00;17.30;99.90
7002;DHT22;3541;53.230;10.518;2022-09-09T09:27:33;17.30;99.90
7002;DHT22;3541;53.230;10.518;2022-09-09T09:30:04;17.30;99.90
7002;DHT22;3541;53.230;10.518;2022-09-09T09:32:34;17.30;99.90
7002;DHT22;3541;53.230;10.518;2022-09-09T09:35:06;17.40;99.90
7002;DHT22;3541;53.230;10.518;2022-09-09T09:37:35;17.30;99.90
7002;DHT22;3541;53.230;10.518;2022-09-09T09:40:09;17.30;99.90
7002;DHT22;3541;53.230;10.518;2022-09-09T09:42:38;17.30;99.90
7002;DHT22;3541;53.230;10.518;2022-09-09T09:45:17;17.30;99.90
7002;DHT22;3541;53.230;10.518;2022-09-09T09:47:58;17.30;99.90
7002;DHT22;3541;53.230;10.518;2022-09-09T09:50:24;17.40;99.90
7002;DHT22;3541;53.230;10.518;2022-09-09T09:52:55;17.40;99.90
7002;DHT22;3541;53.230;10.518;2022-09-09T09:55:23;17.50;99.90
7002;DHT22;3541;53.230;10.518;2022-09-09T09:57:51;17.50;99.90
7002;DHT22;3541;53.230;10.518;2022-09-09T10:00:20;17.60;99.90
7002;DHT22;3541;53.230;10.518;2022-09-09T10:02:48;17.70;99.90
7002;DHT22;3541;53.230;10.518;2022-09-09T10:05:19;17.80;99.90
7002;DHT22;3541;53.230;10.518;2022-09-09T10:07:47;17.80;99.90
7002;DHT22;3541;53.230;10.518;2022-09-09T10:10:18;17.90;99.90
7002;DHT22;3541;53.230;10.518;2022-09-09T10:12:56;18.00;99.90
7002;DHT22;3541;53.230;10.518;2022-09-09T10:15:31;18.00;99.90
7002;DHT22;3541;53.230;10.518;2022-09-09T10:18:07;18.10;99.90
7002;DHT22;3541;53.230;10.518;2022-09-09T10:20:43;18.20;99.90
7002;DHT22;3541;53.230;10.518;2022-09-09T10:23:22;18.20;99.90
7002;DHT22;3541;53.230;10.518;2022-09-09T10:26:01;18.20;99.90
7002;DHT22;3541;53.230;10.518;2022-09-09T10:28:46;18.20;99.90
7002;DHT22;3541;53.230;10.518;2022-09-09T10:31:22;18.30;99.90
7002;DHT22;3541;53.230;10.518;2022-09-09T10:33:59;18.40;99.90
7002;DHT22;3541;53.230;10.518;2022-09-09T10:36:31;18.50;99.90
7002;DHT22;3541;53.230;10.518;2022-09-09T10:39:01;18.70;99.90
7002;DHT22;3541;53.230;10.518;2022-09-09T10:41:42;18.90;99.90
7002;DHT22;3541;53.230;10.518;2022-09-09T10:47:29;19.10;99.90
7002;DHT22;3541;53.230;10.518;2022-09-09T10:50:18;19.30;99.90
7002;DHT22;3541;53.230;10.518;2022-09-09T10:52:57;19.40;99.90
7002;DHT22;3541;53.230;10.518;2022-09-09T10:55:31;19.50;99.90
7002;DHT22;3541;53.230;10.518;2022-09-09T10:58:03;19.50;99.90
7002;DHT22;3541;53.230;10.518;2022-09-09T11:00:37;19.60;99.90
7002;DHT22;3541;53.230;10.518;2022-09-09T11:03:09;19.70;99.90
7002;DHT22;3541;53.230;10.518;2022-09-09T11:05:42;19.90;99.90
7002;DHT22;3541;53.230;10.518;2022-09-09T11:08:13;20.00;99.90
7002;DHT22;3541;53.230;10.518;2022-09-09T11:10:45;20.10;99.90
7002;DHT22;3541;53.230;10.518;2022-09-09T11:13:18;20.10;99.90
7002;DHT22;3541;53.230;10.518;2022-09-09T11:15:48;20.10;99.90
7002;DHT22;3541;53.230;10.518;2022-09-09T11:18:19;20.20;99.90
7002;DHT22;3541;53.230;10.518;2022-09-09T11:20:48;20.30;99.90
7002;DHT22;3541;53.230;10.518;2022-09-09T11:23:17;20.30;99.90
7002;DHT22;3541;53.230;10.518;2022-09-09T11:25:49;20.40;99.90
7002;DHT22;3541;53.230;10.518;2022-09-09T11:28:28;20.50;99.90
7002;DHT22;3541;53.230;10.518;2022-09-09T11:31:17;20.50;99.90
7002;DHT22;3541;53.230;10.518;2022-09-09T11:34:01;20.40;99.90
7002;DHT22;3541;53.230;10.518;2022-09-09T11:36:43;20.50;99.90
7002;DHT22;3541;53.230;10.518;2022-09-09T11:39:44;20.50;99.90
7002;DHT22;3541;53.230;10.518;2022-09-09T11:42:23;20.40;99.90
7002;DHT22;3541;53.230;10.518;2022-09-09T11:44:51;20.10;99.90
7002;DHT22;3541;53.230;10.518;2022-09-09T11:47:23;20.10;99.90
7002;DHT22;3541;53.230;10.518;2022-09-09T11:50:07;19.90;99.90
7002;DHT22;3541;53.230;10.518;2022-09-09T11:52:37;19.70;99.90
7002;DHT22;3541;53.230;10.518;2022-09-09T11:55:09;19.60;99.90
7002;DHT22;3541;53.230;10.518;2022-09-09T11:57:38;19.60;99.90
7002;DHT22;3541;53.230;10.518;2022-09-09T12:00:06;19.50;99.90
7002;DHT22;3541;53.230;10.518;2022-09-09T12:02:34;19.50;99.90
7002;DHT22;3541;53.230;10.518;2022-09-09T12:05:07;19.40;99.90
7002;DHT22;3541;53.230;10.518;2022-09-09T12:07:37;19.30;99.90
7002;DHT22;3541;53.230;10.518;2022-09-09T12:10:19;19.20;99.90
7002;DHT22;3541;53.230;10.518;2022-09-09T12:12:47;19.20;99.90
7002;DHT22;3541;53.230;10.518;2022-09-09T12:15:20;19.20;99.90
7002;DHT22;3541;53.230;10.518;2022-09-09T12:17:49;19.10;99.90
7002;DHT22;3541;53.230;10.518;2022-09-09T12:20:19;19.10;99.90
7002;DHT22;3541;53.230;10.518;2022-09-09T12:22:55;19.00;99.90
7002;DHT22;3541;53.230;10.518;2022-09-09T12:25:31;19.00;99.90
7002;DHT22;3541;53.230;10.518;2022-09-09T12:28:05;19.00;99.90
7002;DHT22;3541;53.230;10.518;2022-09-09T12:30:41;19.10;99.90
7002;DHT22;3541;53.230;10.518;2022-09-09T12:33:12;19.10;99.90
7002;DHT22;3541;53.230;10.518;2022-09-09T12:35:43;19.30;99.90
7002;DHT22;3541;53.230;10.518;2022-09-09T12:38:14;19.60;99.90
7002;DHT22;3541;53.230;10.518;2022-09-09T12:40:42;19.90;99.90
7002;DHT22;3541;53.230;10.518;2022-09-09T12:43:17;20.00;99.90
7002;DHT22;3541;53.230;10.518;2022-09-09T12:45:45;20.20;99.90
7002;DHT22;3541;53.230;10.518;2022-09-09T12:48:12;20.40;99.90
7002;DHT22;3541;53.230;10.518;2022-09-09T12:50:46;20.40;99.90
7002;DHT22;3541;53.230;10.518;2022-09-09T12:53:23;20.40;99.90
7002;DHT22;3541;53.230;10.518;2022-09-09T12:55:53;20.50;99.90
7002;DHT22;3541;53.230;10.518;2022-09-09T12:58:21;20.70;99.90
7002;DHT22;3541;53.230;10.518;2022-09-09T13:00:52;20.80;99.90
7002;DHT22;3541;53.230;10.518;2022-09-09T13:03:22;20.90;99.90
7002;DHT22;3541;53.230;10.518;2022-09-09T13:05:52;21.00;99.90
7002;DHT22;3541;53.230;10.518;2022-09-09T13:08:19;21.00;99.90
7002;DHT22;3541;53.230;10.518;2022-09-09T13:10:48;21.00;99.90
7002;DHT22;3541;53.230;10.518;2022-09-09T13:13:21;21.00;99.90
7002;DHT22;3541;53.230;10.518;2022-09-09T13:15:49;21.10;99.90
7002;DHT22;3541;53.230;10.518;2022-09-09T13:18:19;21.30;99.90
7002;DHT22;3541;53.230;10.518;2022-09-09T13:20:47;21.50;99.90
7002;DHT22;3541;53.230;10.518;2022-09-09T13:23:15;21.40;99.90
7002;DHT22;3541;53.230;10.518;2022-09-09T13:25:53;21.10;99.90
7002;DHT22;3541;53.230;10.518;2022-09-09T13:28:21;20.90;99.90
7002;DHT22;3541;53.230;10.518;2022-09-09T13:30:56;20.80;99.90
7002;DHT22;3541;53.230;10.518;2022-09-09T13:33:29;20.70;99.90
7002;DHT22;3541;53.230;10.518;2022-09-09T13:35:59;20.50;99.90
7002;DHT22;3541;53.230;10.518;2022-09-09T13:38:31;20.50;99.90
7002;DHT22;3541;53.230;10.518;2022-09-09T13:41:00;20.30;99.90
7002;DHT22;3541;53.230;10.518;2022-09-09T13:43:31;20.20;99.90
7002;DHT22;3541;53.230;10.518;2022-09-09T13:46:01;20.10;99.90
7002;DHT22;3541;53.230;10.518;2022-09-09T13:48:28;20.00;99.90
7002;DHT22;3541;53.230;10.518;2022-09-09T13:50:57;20.00;99.90
7002;DHT22;3541;53.230;10.518;2022-09-09T13:53:24;19.90;99.90
7002;DHT22;3541;53.230;10.518;2022-09-09T13:55:53;19.80;99.90
7002;DHT22;3541;53.230;10.518;2022-09-09T13:58:19;19.70;99.90
7002;DHT22;3541;53.230;10.518;2022-09-09T14:00:48;19.70;99.90
7002;DHT22;3541;53.230;10.518;2022-09-09T14:03:15;19.70;99.90
7002;DHT22;3541;53.230;10.518;2022-09-09T14:05:42;19.60;99.90
7002;DHT22;3541;53.230;10.518;2022-09-09T14:08:23;19.60;99.90
7002;DHT22;3541;53.230;10.518;2022-09-09T14:10:51;19.50;99.90
7002;DHT22;3541;53.230;10.518;2022-09-09T14:13:21;19.40;99.90
7002;DHT22;3541;53.230;10.518;2022-09-09T14:15:48;19.20;99.90
7002;DHT22;3541;53.230;10.518;2022-09-09T14:18:16;19.10;99.90
7002;DHT22;3541;53.230;10.518;2022-09-09T14:20:42;19.00;99.90
7002;DHT22;3541;53.230;10.518;2022-09-09T14:23:11;18.90;99.90
7002;DHT22;3541;53.230;10.518;2022-09-09T14:25:40;18.90;99.90
7002;DHT22;3541;53.230;10.518;2022-09-09T14:28:09;18.90;99.90
7002;DHT22;3541;53.230;10.518;2022-09-09T14:30:38;19.00;99.90
7002;DHT22;3541;53.230;10.518;2022-09-09T14:33:05;18.90;99.90
7002;DHT22;3541;53.230;10.518;2022-09-09T14:35:31;18.80;99.90
7002;DHT22;3541;53.230;10.518;2022-09-09T14:37:59;18.80;99.90
7002;DHT22;3541;53.230;10.518;2022-09-09T14:40:26;18.60;99.90
7002;DHT22;3541;53.230;10.518;2022-09-09T14:42:53;18.50;99.90
7002;DHT22;3541;53.230;10.518;2022-09-09T14:45:22;18.50;99.90
7002;DHT22;3541;53.230;10.518;2022-09-09T14:47:50;18.60;99.90
7002;DHT22;3541;53.230;10.518;2022-09-09T14:50:17;18.60;99.90
7002;DHT22;3541;53.230;10.518;2022-09-09T14:52:44;18.70;99.90
7002;DHT22;3541;53.230;10.518;2022-09-09T14:55:10;18.70;99.90
7002;DHT22;3541;53.230;10.518;2022-09-09T14:57:37;18.80;99.90
7002;DHT22;3541;53.230;10.518;2022-09-09T15:00:05;18.80;99.90
7002;DHT22;3541;53.230;10.518;2022-09-09T15:02:33;18.80;99.90
7002;DHT22;3541;53.230;10.518;2022-09-09T15:05:00;18.80;99.90
7002;DHT22;3541;53.230;10.518;2022-09-09T15:07:27;18.70;99.90
7002;DHT22;3541;53.230;10.518;2022-09-09T15:09:54;18.70;99.90
7002;DHT22;3541;53.230;10.518;2022-09-09T15:12:21;18.70;99.90
7002;DHT22;3541;53.230;10.518;2022-09-09T15:14:47;18.80;99.90
7002;DHT22;3541;53.230;10.518;2022-09-09T15:17:15;18.80;99.90
7002;DHT22;3541;53.230;10.518;2022-09-09T15:19:43;18.80;99.90
7002;DHT22;3541;53.230;10.518;2022-09-09T15:22:11;18.70;99.90
7002;DHT22;3541;53.230;10.518;2022-09-09T15:24:37;18.70;99.90
7002;DHT22;3541;53.230;10.518;2022-09-09T15:27:06;18.80;99.90
7002;DHT22;3541;53.230;10.518;2022-09-09T15:29:32;18.80;99.90
7002;DHT22;3541;53.230;10.518;2022-09-09T15:31:59;18.80;99.90
7002;DHT22;3541;53.230;10.518;2022-09-09T15:34:25;18.80;99.90
7002;DHT22;3541;53.230;10.518;2022-09-09T15:36:53;18.80;99.90
7002;DHT22;3541;53.230;10.518;2022-09-09T15:39:21;18.80;99.90
7002;DHT22;3541;53.230;10.518;2022-09-09T15:41:48;18.80;99.90
7002;DHT22;3541;53.230;10.518;2022-09-09T15:44:15;18.90;99.90
7002;DHT22;3541;53.230;10.518;2022-09-09T15:46:44;18.80;99.90
7002;DHT22;3541;53.230;10.518;2022-09-09T15:49:12;18.90;99.90
7002;DHT22;3541;53.230;10.518;2022-09-09T15:51:40;18.90;99.90
7002;DHT22;3541;53.230;10.518;2022-09-09T15:54:10;18.90;99.90
7002;DHT22;3541;53.230;10.518;2022-09-09T15:56:37;19.00;99.90
7002;DHT22;3541;53.230;10.518;2022-09-09T15:59:04;19.00;99.90
7002;DHT22;3541;53.230;10.518;2022-09-09T16:01:31;19.00;99.90
7002;DHT22;3541;53.230;10.518;2022-09-09T16:03:59;19.00;99.90
7002;DHT22;3541;53.230;10.518;2022-09-09T16:06:27;18.90;99.90
7002;DHT22;3541;53.230;10.518;2022-09-09T16:08:56;18.90;99.90